Portada
METAR-TAF:

METAR-TAF

Aeroports :

Ciutat del Cap, Sud-àfrica

latitud: 33-59S, longitud: 018-36E, altitud: 42 m

Observació

L'informe es va fer fa 51 minuts, a les 21:00 UTC
Vent 3 kt del Est/Nord-Est
Temperatura 9°C
Humitat 100%
Pressió 1025 hPa
Visibilitat: 0100 m
boira

METAR: FACT 182100Z 06003KT 0100 R19/0650 FG NSC 09/09 Q1025 NOSIG

Hora: 23:51 (21:51 UTC)

Pronòstic

L'informe es va fer fa 51 minuts, a les 21:00 UTC
Pronòstic vàlid del 18 a les 18 UTC al 19 a les 24 UTC
Vent 3 kt amb direcció variable
Visibilitat 10 km o més
sense núvols per sota de 1500 mi sense presència de cumulonimbus.
Probabilitat 40% :
Temporalment
l' 18 a les 19 UTC al 19 a les 02 UTC
Visibilitat: 1500 m
boirina
Temporalment
l' 18 a les 21 UTC al 18 a les 24 UTC
Visibilitat: 0100 m
boira

TAF: FACT 182100Z 1818/1924 VRB03KT CAVOK TX26/1912Z TN08/1906Z PROB40 TEMPO 1819/1902 1500 BR NSC TEMPO 1821/1824 0100 FG NSC

Observacions i pronòstics meteorològics de més de 4000 aeroports (METAR i TAF).

Les estacions disponibles són els punts grocs i vermells al mapa.

Posi el ratolí al punt desitjat per veure el nom de l'estació.

Feu clic per veure les observacions i els pronòstics meteorològics.

Per canviar el mapa: feu clic els botons verds amb una creu de color negre per apropar; al botó verd amb un guió per allunyar la imatge; o en les fletxes verdes per a mapes adjacents.


METAR-TAF: